INFORMACIÓN METAR y TAF
METAR FOR LEDA
ADDS - METARS form results

(0032 UTC 26 April 2019)
Data provider http://aviationweather.gov/metar/data/
 
METAR text: LEDA 260000Z AUTO 25009KT 9999 NCD 08/05 Q1016
Conditions at: LEDA (LLEIDA-ALGUAIRE , ES) observed 0000 UTC 26 April 2019
Temperature: 8.0°C (46°F)
Dewpoint: 5.0°C (41°F) [RH = 81%]
Pressure (altimeter): 30.00 inches Hg (1016.0 mb)
Winds: from the WSW (250 degrees) at 10 MPH (9 knots; 4.6 m/s)
Visibility: 6 or more miles (10+ km)
Ceiling: at least 12,000 feet AGL
Clouds: sky clear below 12,000 feet AGL
Weather: no significant weather observed at this time

 MAPA DE AEROPUERTO

 INFORMACIÓN DE PISTA

 FRECUANCIAS DEL AEROPUERTO

 RADIO AYUDAS DEL AEROPUERTO



Powered by Virtual Airlines Manager [v2.6.2]